Time;durP1;ratioP1;P1;durP2;ratioP2;P2;SDS_P1;SDS_P2;PMS_P1;PMS_P2;Temp;Humidity;BMP_temperature;BMP_pressure;BME280_temperature;BME280_humidity;BME280_pressure;Samples;Min_cycle;Max_cycle;Signal;HPM_P1;HPM_P2
2022/04/21 00:00:39;;;;;;;11.25;5.00;;;6.30;99.90;;;;;;4959766;28;20098;-79
2022/04/21 00:03:05;;;;;;;9.45;4.85;;;6.30;99.90;;;;;;4976794;28;20046;-78
2022/04/21 00:05:32;;;;;;;8.50;4.60;;;6.40;99.90;;;;;;4978008;28;20407;-78
2022/04/21 00:07:58;;;;;;;8.55;4.75;;;6.30;99.90;;;;;;4957005;28;20118;-80
2022/04/21 00:10:25;;;;;;;10.43;5.07;;;6.20;99.90;;;;;;4967181;28;20158;-79
2022/04/21 00:12:55;;;;;;;8.32;4.97;;;6.20;99.90;;;;;;4963549;28;20059;-79
2022/04/21 00:15:21;;;;;;;10.55;5.53;;;6.10;99.90;;;;;;4937338;28;20573;-79
2022/04/21 00:17:50;;;;;;;9.88;5.18;;;6.10;99.90;;;;;;4935192;28;20704;-79
2022/04/21 00:20:16;;;;;;;11.68;5.13;;;6.00;99.90;;;;;;4948509;28;20047;-78
2022/04/21 00:25:29;;;;;;;13.38;6.05;;;5.90;99.90;;;;;;4972339;28;20150;-79
2022/04/21 00:27:55;;;;;;;10.80;5.55;;;5.90;99.90;;;;;;4942604;28;20046;-79
2022/04/21 00:30:22;;;;;;;13.90;5.85;;;5.80;99.90;;;;;;4967392;28;20046;-79
2022/04/21 00:32:48;;;;;;;10.95;5.72;;;5.80;99.90;;;;;;4952044;28;20074;-79
2022/04/21 00:35:16;;;;;;;12.68;5.78;;;5.80;99.90;;;;;;4971996;28;20125;-78
2022/04/21 00:37:55;;;;;;;9.63;5.60;;;5.80;99.90;;;;;;4950625;28;20038;-79
2022/04/21 00:40:26;;;;;;;13.10;6.03;;;5.80;99.90;;;;;;4976897;28;20118;-79
2022/04/21 00:42:53;;;;;;;10.05;5.18;;;5.80;99.90;;;;;;4958339;28;20113;-78
2022/04/21 00:45:19;;;;;;;11.23;6.22;;;5.70;99.90;;;;;;4960881;28;20069;-78
2022/04/21 00:47:46;;;;;;;9.75;5.85;;;5.70;99.90;;;;;;4973572;28;20355;-78
2022/04/21 00:50:24;;;;;;;13.07;6.43;;;5.70;99.90;;;;;;4957072;28;20046;-79
2022/04/21 00:52:55;;;;;;;11.98;5.97;;;5.70;99.90;;;;;;4972134;28;20042;-79
2022/04/21 00:55:25;;;;;;;11.03;6.10;;;5.70;99.90;;;;;;4940945;28;20458;-78
2022/04/21 00:57:53;;;;;;;14.63;7.03;;;5.70;99.90;;;;;;4952762;28;20093;-78
2022/04/21 01:00:19;;;;;;;14.18;6.75;;;6.00;99.90;;;;;;4945864;28;20145;-78
2022/04/21 01:02:51;;;;;;;13.45;7.03;;;5.70;99.90;;;;;;4952918;28;20042;-79
2022/04/21 01:05:26;;;;;;;14.60;7.15;;;5.70;99.90;;;;;;4952071;28;20609;-78
2022/04/21 01:07:53;;;;;;;13.57;6.53;;;5.70;99.90;;;;;;4970290;28;20046;-79
2022/04/21 01:10:19;;;;;;;12.02;6.95;;;5.60;99.90;;;;;;4968794;28;20133;-79
2022/04/21 01:12:46;;;;;;;12.48;7.15;;;5.60;99.90;;;;;;4963114;28;20050;-78
2022/04/21 01:15:11;;;;;;;14.25;7.20;;;5.60;99.90;;;;;;4942259;28;20038;-79
2022/04/21 01:17:38;;;;;;;12.35;7.45;;;5.50;99.90;;;;;;4973036;28;20237;-78
2022/04/21 01:20:06;;;;;;;12.15;7.18;;;5.50;99.90;;;;;;4950248;28;20053;-79
2022/04/21 01:22:31;;;;;;;15.25;7.93;;;5.40;99.90;;;;;;4970276;28;20500;-79
2022/04/21 01:24:58;;;;;;;14.90;7.93;;;5.40;99.90;;;;;;4979554;28;20051;-79
2022/04/21 01:27:27;;;;;;;13.38;7.53;;;5.40;99.90;;;;;;4957524;28;20047;-78
2022/04/21 01:29:53;;;;;;;15.55;8.63;;;5.40;99.90;;;;;;4953608;28;20402;-79
2022/04/21 01:32:19;;;;;;;15.75;8.63;;;5.40;99.90;;;;;;4972461;28;20050;-78
2022/04/21 01:34:44;;;;;;;14.82;7.97;;;5.30;99.90;;;;;;4953602;28;20046;-79
2022/04/21 01:42:39;;;;;;;15.50;8.82;;;5.30;99.90;;;;;;4953336;28;20125;-78
2022/04/21 01:45:05;;;;;;;15.23;9.43;;;5.30;99.90;;;;;;4939299;28;20133;-78
2022/04/21 01:47:30;;;;;;;16.42;10.02;;;5.30;99.90;;;;;;4975532;28;20046;-79
2022/04/21 01:49:56;;;;;;;19.65;10.68;;;5.30;99.90;;;;;;4965828;28;20458;-79
2022/04/21 01:52:22;;;;;;;19.30;10.27;;;5.30;99.90;;;;;;4938052;28;20038;-79
2022/04/21 01:54:50;;;;;;;20.55;11.27;;;5.40;99.90;;;;;;4950745;28;20039;-79
2022/04/21 01:57:22;;;;;;;19.77;11.40;;;5.40;99.90;;;;;;4937657;28;20578;-79
2022/04/21 01:59:51;;;;;;;21.55;12.25;;;5.50;99.90;;;;;;4964200;28;20256;-78
2022/04/21 02:02:20;;;;;;;20.08;11.05;;;5.60;99.90;;;;;;4940668;28;20097;-78
2022/04/21 02:04:46;;;;;;;20.42;11.70;;;5.60;99.90;;;;;;4968377;28;20039;-78
2022/04/21 02:07:14;;;;;;;25.38;12.27;;;5.70;99.90;;;;;;4974332;28;20136;-79
2022/04/21 02:09:40;;;;;;;22.40;12.93;;;5.80;99.90;;;;;;4963191;28;20074;-79
2022/04/21 02:12:06;;;;;;;22.92;11.98;;;5.70;99.90;;;;;;4953611;28;20060;-78
2022/04/21 02:14:35;;;;;;;25.15;12.68;;;5.70;99.90;;;;;;4940998;28;20046;-79
2022/04/21 02:17:01;;;;;;;22.90;13.45;;;5.70;99.90;;;;;;4970038;28;20038;-79
2022/04/21 02:19:28;;;;;;;24.15;13.45;;;5.70;99.90;;;;;;4956682;28;20624;-79
2022/04/21 02:21:54;;;;;;;22.08;12.85;;;5.70;99.90;;;;;;4960279;28;20035;-79
2022/04/21 02:24:19;;;;;;;21.95;12.88;;;5.80;99.90;;;;;;4953113;28;20054;-78
2022/04/21 02:26:45;;;;;;;22.73;12.20;;;5.80;99.90;;;;;;4955529;28;20075;-78
2022/04/21 02:29:11;;;;;;;22.05;12.10;;;5.80;99.90;;;;;;4956975;28;20109;-78
2022/04/21 02:31:37;;;;;;;21.40;12.13;;;5.90;99.90;;;;;;4939176;28;20046;-78
2022/04/21 02:34:02;;;;;;;25.00;12.48;;;5.90;99.90;;;;;;4969417;28;20495;-79
2022/04/21 02:36:28;;;;;;;20.33;12.15;;;5.90;99.90;;;;;;4955666;28;20484;-78
2022/04/21 02:38:53;;;;;;;22.55;13.02;;;5.90;99.90;;;;;;4973046;28;20229;-79
2022/04/21 02:41:19;;;;;;;22.98;12.38;;;5.90;99.90;;;;;;4967674;28;20055;-78
2022/04/21 02:43:45;;;;;;;20.83;11.70;;;5.80;99.90;;;;;;4967689;28;20067;-79
2022/04/21 02:46:11;;;;;;;21.23;11.95;;;5.80;99.90;;;;;;4942737;28;20141;-79
2022/04/21 02:48:37;;;;;;;23.25;12.05;;;5.70;99.90;;;;;;4956935;28;20047;-78
2022/04/21 02:51:03;;;;;;;20.13;11.68;;;5.70;99.90;;;;;;4952855;28;20035;-79
2022/04/21 02:59:01;;;;;;;21.70;11.65;;;5.60;99.90;;;;;;4973587;28;20061;-79
2022/04/21 03:01:27;;;;;;;23.00;11.90;;;5.50;99.90;;;;;;4960914;28;20614;-78
2022/04/21 03:03:55;;;;;;;19.52;11.18;;;5.40;99.90;;;;;;4971045;28;20042;-79
2022/04/21 03:06:21;;;;;;;19.20;11.32;;;5.40;99.90;;;;;;4956191;28;20444;-78
2022/04/21 03:08:50;;;;;;;22.75;11.48;;;5.40;99.90;;;;;;4971423;28;20137;-78
2022/04/21 03:11:17;;;;;;;20.60;11.18;;;5.40;99.90;;;;;;4977479;28;20063;-79
2022/04/21 03:13:42;;;;;;;18.02;10.65;;;5.30;99.90;;;;;;4974858;28;20236;-78
2022/04/21 03:16:08;;;;;;;21.33;11.50;;;5.30;99.90;;;;;;4968275;28;20164;-78
2022/04/21 03:18:33;;;;;;;21.27;10.73;;;5.40;99.90;;;;;;4977393;28;20054;-78
2022/04/21 03:26:28;;;;;;;14.73;9.57;;;5.40;99.90;;;;;;4973322;28;20380;-78
2022/04/21 03:28:53;;;;;;;18.80;10.43;;;5.50;99.90;;;;;;4957725;28;20065;-79
2022/04/21 03:31:19;;;;;;;17.85;9.82;;;5.50;99.90;;;;;;4958079;28;20567;-78
2022/04/21 03:33:46;;;;;;;16.77;9.75;;;5.60;99.90;;;;;;4973652;28;20054;-78
2022/04/21 03:36:12;;;;;;;16.75;9.93;;;5.60;99.90;;;;;;4968817;28;20499;-79
2022/04/21 03:38:39;;;;;;;17.75;10.18;;;5.70;99.90;;;;;;4942324;28;20050;-79
2022/04/21 03:41:05;;;;;;;19.98;9.98;;;5.70;99.90;;;;;;4955020;28;20101;-79
2022/04/21 03:43:31;;;;;;;18.02;9.30;;;5.70;99.90;;;;;;4978799;28;20068;-79
2022/04/21 03:45:57;;;;;;;17.45;9.65;;;5.70;99.90;;;;;;4961239;28;20586;-78
2022/04/21 03:48:25;;;;;;;13.88;8.43;;;5.70;99.90;;;;;;4957131;28;20720;-78
2022/04/21 03:50:51;;;;;;;15.02;8.70;;;5.70;99.90;;;;;;4968413;28;20038;-78
2022/04/21 03:53:16;;;;;;;16.50;8.50;;;5.70;99.90;;;;;;4947556;28;20041;-78
2022/04/21 03:55:42;;;;;;;14.70;8.05;;;5.70;99.90;;;;;;4949671;28;20291;-78
2022/04/21 03:58:08;;;;;;;16.92;8.75;;;5.60;99.90;;;;;;4961227;28;20460;-78
2022/04/21 04:00:34;;;;;;;14.50;8.40;;;5.60;99.90;;;;;;4970626;28;20517;-79
2022/04/21 04:03:00;;;;;;;14.50;8.60;;;5.60;99.90;;;;;;4948737;28;20097;-79
2022/04/21 04:05:26;;;;;;;16.40;9.02;;;5.60;99.90;;;;;;4938078;28;20050;-78
2022/04/21 04:10:51;;;;;;;15.18;8.60;;;5.60;99.90;;;;;;4949236;28;20038;-78
2022/04/21 04:13:16;;;;;;;14.00;8.50;;;5.60;99.90;;;;;;4972148;28;20061;-78
2022/04/21 04:15:47;;;;;;;15.77;8.38;;;5.60;99.90;;;;;;4953075;28;20606;-79
2022/04/21 04:18:16;;;;;;;14.63;8.65;;;5.60;99.90;;;;;;4933617;28;20038;-78
2022/04/21 04:20:42;;;;;;;16.02;8.18;;;5.60;99.90;;;;;;4927555;28;20050;-78
2022/04/21 04:23:08;;;;;;;17.42;8.32;;;5.60;99.90;;;;;;4965295;28;20043;-78
2022/04/21 04:25:35;;;;;;;15.35;8.18;;;5.60;99.90;;;;;;4960588;28;20110;-78
2022/04/21 04:28:04;;;;;;;13.63;8.15;;;5.60;99.90;;;;;;4974119;28;20076;-79
2022/04/21 04:30:30;;;;;;;12.85;8.02;;;5.60;99.90;;;;;;4948117;28;20047;-78
2022/04/21 04:32:56;;;;;;;14.07;8.32;;;5.70;99.90;;;;;;4972405;28;20049;-78
2022/04/21 04:35:22;;;;;;;14.40;8.05;;;5.60;99.90;;;;;;4917077;28;20038;-79
2022/04/21 04:37:48;;;;;;;17.35;8.98;;;5.70;99.90;;;;;;4958178;28;20401;-78
2022/04/21 04:40:13;;;;;;;16.88;8.35;;;5.70;99.90;;;;;;4949222;28;20078;-79
2022/04/21 04:42:39;;;;;;;13.15;8.10;;;5.70;99.90;;;;;;4977104;28;20074;-78
2022/04/21 04:47:50;;;;;;;16.38;8.85;;;5.80;99.90;;;;;;4972483;28;20130;-78
2022/04/21 04:50:15;;;;;;;14.70;8.05;;;5.80;99.90;;;;;;4958630;28;21392;-82
2022/04/21 04:52:41;;;;;;;14.60;8.07;;;5.90;99.90;;;;;;4932308;28;20054;-82
2022/04/21 04:55:11;;;;;;;14.35;8.02;;;6.00;99.90;;;;;;4949324;28;20185;-83
2022/04/21 04:57:39;;;;;;;15.77;8.40;;;6.10;99.90;;;;;;4946834;28;20043;-83
2022/04/21 05:00:07;;;;;;;14.43;8.10;;;6.20;99.90;;;;;;4968581;28;20045;-82
2022/04/21 05:02:32;;;;;;;14.13;8.27;;;6.30;99.90;;;;;;4973927;28;20113;-82
2022/04/21 05:04:58;;;;;;;15.57;8.65;;;6.40;99.90;;;;;;4970703;28;20057;-83
2022/04/21 05:07:24;;;;;;;15.15;7.38;;;6.50;99.90;;;;;;4965743;28;20050;-82
2022/04/21 05:09:56;;;;;;;12.02;7.20;;;6.60;99.90;;;;;;4959379;28;20061;-84
2022/04/21 05:12:21;;;;;;;15.63;8.82;;;6.70;99.90;;;;;;4945528;28;20063;-83
2022/04/21 05:14:52;;;;;;;14.57;7.85;;;7.10;99.90;;;;;;4962364;28;20742;-82
2022/04/21 05:17:18;;;;;;;11.32;6.68;;;8.20;99.90;;;;;;4943940;28;20054;-83
2022/04/21 05:19:45;;;;;;;16.85;7.35;;;9.10;99.90;;;;;;4977015;28;20050;-83
2022/04/21 05:22:13;;;;;;;16.38;7.35;;;10.20;99.90;;;;;;4954049;28;20043;-83
2022/04/21 05:24:39;;;;;;;16.70;7.25;;;11.20;99.90;;;;;;4937930;28;20557;-82
2022/04/21 05:27:05;;;;;;;12.50;7.03;;;12.20;99.90;;;;;;4940690;28;20053;-82
2022/04/21 05:32:18;;;;;;;14.40;6.72;;;13.60;99.90;;;;;;4941025;28;20039;-83
2022/04/21 05:34:45;;;;;;;10.63;6.35;;;14.20;99.90;;;;;;4942356;28;20074;-82
2022/04/21 05:37:11;;;;;;;12.77;6.50;;;14.70;99.90;;;;;;4939523;28;20042;-83
2022/04/21 05:39:37;;;;;;;15.27;6.65;;;14.00;99.90;;;;;;4943891;28;20051;-83
2022/04/21 05:42:05;;;;;;;12.13;6.40;;;13.30;99.90;;;;;;4977424;28;20050;-83
2022/04/21 05:44:31;;;;;;;12.68;6.80;;;13.30;99.90;;;;;;4946918;28;20057;-83
2022/04/21 05:46:57;;;;;;;11.05;6.50;;;12.90;99.90;;;;;;4931204;28;20688;-83
2022/04/21 05:49:24;;;;;;;12.98;7.18;;;12.40;99.90;;;;;;4956712;28;20047;-83
2022/04/21 05:51:55;;;;;;;12.02;7.03;;;12.00;99.90;;;;;;4931405;28;20050;-82
2022/04/21 05:54:21;;;;;;;12.13;7.35;;;11.80;99.90;;;;;;4937677;28;20057;-83
2022/04/21 05:56:50;;;;;;;15.98;6.97;;;11.90;99.90;;;;;;4957966;28;20543;-83
2022/04/21 05:59:15;;;;;;;11.82;7.45;;;11.80;99.90;;;;;;4955151;28;20500;-83
2022/04/21 06:01:41;;;;;;;11.50;7.13;;;11.70;99.90;;;;;;4942228;28;20054;-84
2022/04/21 06:04:07;;;;;;;12.57;6.93;;;11.70;99.90;;;;;;4960125;28;20050;-83
2022/04/21 06:06:33;;;;;;;12.52;7.53;;;11.60;99.90;;;;;;4953863;28;20054;-83
2022/04/21 06:08:58;;;;;;;12.77;7.03;;;11.30;99.90;;;;;;4937836;28;20105;-83
2022/04/21 06:11:24;;;;;;;11.52;7.45;;;11.20;99.90;;;;;;4927445;28;20051;-83
2022/04/21 06:13:51;;;;;;;14.20;7.30;;;11.40;99.90;;;;;;4945266;28;20055;-83
2022/04/21 06:16:16;;;;;;;12.85;7.13;;;11.30;99.90;;;;;;4943970;28;20516;-83
2022/04/21 06:18:43;;;;;;;12.15;7.43;;;10.80;99.90;;;;;;4940304;28;20290;-83
2022/04/21 06:21:09;;;;;;;15.02;7.80;;;10.80;99.90;;;;;;4926204;28;20053;-83
2022/04/21 06:23:35;;;;;;;12.70;7.13;;;10.80;99.90;;;;;;4959724;28;20113;-83
2022/04/21 06:26:03;;;;;;;13.90;7.78;;;11.40;99.90;;;;;;4944156;28;20066;-82
2022/04/21 06:28:29;;;;;;;14.50;7.85;;;11.30;99.90;;;;;;4976138;28;20423;-83
2022/04/21 06:30:55;;;;;;;15.77;7.82;;;11.80;99.90;;;;;;4941865;28;20057;-83
2022/04/21 06:33:21;;;;;;;15.20;7.45;;;11.80;99.90;;;;;;4944257;28;20051;-83
2022/04/21 06:35:50;;;;;;;15.65;7.65;;;11.70;99.90;;;;;;4966568;28;20511;-82
2022/04/21 06:38:16;;;;;;;11.05;7.15;;;12.30;99.90;;;;;;4949354;28;20063;-83
2022/04/21 06:40:42;;;;;;;15.60;7.25;;;13.40;99.90;;;;;;4945347;28;20047;-83
2022/04/21 06:48:41;;;;;;;10.63;5.68;;;17.30;99.90;;;;;;4944760;28;20047;-83
2022/04/21 06:51:07;;;;;;;9.90;5.45;;;17.70;99.90;;;;;;4943659;28;20035;-83
2022/04/21 06:53:34;;;;;;;11.93;5.70;;;18.00;99.90;;;;;;4942736;28;20054;-83
2022/04/21 06:56:01;;;;;;;15.73;4.63;;;17.70;99.90;;;;;;4927655;28;20517;-83
2022/04/21 06:58:27;;;;;;;9.52;4.35;;;17.20;99.90;;;;;;4931091;28;20101;-83
2022/04/21 07:00:53;;;;;;;8.77;4.18;;;17.10;99.60;;;;;;4974706;28;20549;-78
2022/04/21 07:03:19;;;;;;;7.18;3.70;;;17.10;98.60;;;;;;4949173;28;20174;-81
2022/04/21 07:05:45;;;;;;;8.75;3.35;;;17.10;96.60;;;;;;4932027;28;20057;-81
2022/04/21 07:08:11;;;;;;;7.53;3.75;;;17.00;94.40;;;;;;4979641;28;20046;-80
2022/04/21 07:10:37;;;;;;;9.45;4.05;;;17.00;95.60;;;;;;4967203;28;20061;-82
2022/04/21 07:13:10;;;;;;;8.25;3.42;;;16.90;93.60;;;;;;4968166;28;20053;-77
2022/04/21 07:15:36;;;;;;;7.45;3.35;;;16.50;93.90;;;;;;4947640;28;20121;-80
2022/04/21 07:18:01;;;;;;;9.90;3.38;;;16.30;94.80;;;;;;4948548;28;20082;-78
2022/04/21 07:20:27;;;;;;;7.63;3.45;;;16.00;95.20;;;;;;4933250;28;20583;-83
2022/04/21 07:22:55;;;;;;;5.80;3.15;;;15.30;94.60;;;;;;4979668;28;20074;-80
2022/04/21 07:25:21;;;;;;;7.53;3.20;;;14.90;95.30;;;;;;4962276;28;20042;-78
2022/04/21 07:27:49;;;;;;;10.20;3.30;;;14.50;95.50;;;;;;4947813;28;20169;-77
2022/04/21 07:30:15;;;;;;;7.00;3.35;;;14.50;97.60;;;;;;4981300;28;20041;-78
2022/04/21 07:32:44;;;;;;;7.38;3.20;;;14.70;98.30;;;;;;4964455;28;20046;-80
2022/04/21 07:35:10;;;;;;;7.45;3.25;;;14.60;97.20;;;;;;4948258;28;20066;-80
2022/04/21 07:37:37;;;;;;;5.75;3.00;;;14.70;97.40;;;;;;4933834;28;20046;-80
2022/04/21 07:40:07;;;;;;;7.72;3.20;;;14.80;98.00;;;;;;4949053;28;20100;-79
2022/04/21 07:42:33;;;;;;;7.72;3.00;;;14.90;97.20;;;;;;4963197;28;20129;-82
2022/04/21 07:44:59;;;;;;;8.15;3.20;;;14.90;96.70;;;;;;4979477;28;20051;-83
2022/04/21 07:47:25;;;;;;;8.27;2.72;;;14.90;96.30;;;;;;4960755;28;20046;-83
2022/04/21 07:49:51;;;;;;;6.53;2.55;;;14.90;94.90;;;;;;4945873;28;20463;-87
2022/04/21 07:55:13;;;;;;;7.78;3.03;;;15.10;95.30;;;;;;4963141;28;20046;-82
2022/04/21 07:57:40;;;;;;;5.90;2.40;;;15.20;95.80;;;;;;4945297;28;20089;-80
2022/04/21 08:00:06;;;;;;;7.30;2.78;;;15.30;94.40;;;;;;4946748;28;20055;-82
2022/04/21 08:02:32;;;;;;;10.05;2.75;;;15.50;95.20;;;;;;4932219;28;20521;-80
2022/04/21 08:04:58;;;;;;;7.13;2.63;;;15.70;95.00;;;;;;4964771;28;20054;-86
2022/04/21 08:07:24;;;;;;;6.70;2.40;;;15.80;94.70;;;;;;4932992;28;20185;-79
2022/04/21 08:09:50;;;;;;;6.22;2.50;;;16.00;94.30;;;;;;4946358;28;20126;-81
2022/04/21 08:12:16;;;;;;;7.72;2.22;;;16.10;93.00;;;;;;4969236;28;20102;-83
2022/04/21 08:14:41;;;;;;;3.78;1.80;;;15.90;94.00;;;;;;4947990;28;20523;-82
2022/04/21 08:17:08;;;;;;;4.13;1.80;;;16.00;93.10;;;;;;4950989;28;20302;-80
2022/04/21 08:19:34;;;;;;;3.63;1.80;;;16.10;92.80;;;;;;4932926;28;20050;-80
2022/04/21 08:22:00;;;;;;;3.83;1.52;;;16.20;92.80;;;;;;4951571;28;20261;-81
2022/04/21 08:32:50;;;;;;;5.97;1.80;;;16.50;90.40;;;;;;4965906;28;20059;-80
2022/04/21 08:35:15;;;;;;;4.90;1.73;;;16.50;90.70;;;;;;4967285;28;20046;-79
2022/04/21 08:37:42;;;;;;;3.60;1.80;;;16.60;91.10;;;;;;4933765;28;20413;-81
2022/04/21 08:40:10;;;;;;;4.47;1.40;;;16.70;90.50;;;;;;4947984;28;20413;-78
2022/04/21 08:42:41;;;;;;;4.13;1.65;;;16.80;90.50;;;;;;4934799;28;20463;-80
2022/04/21 08:45:08;;;;;;;6.53;2.25;;;16.90;90.50;;;;;;4948369;28;20047;-79
2022/04/21 08:47:35;;;;;;;7.15;1.90;;;17.00;88.50;;;;;;4947753;28;20055;-78
2022/04/21 08:50:06;;;;;;;8.10;2.40;;;16.90;86.70;;;;;;4963108;28;20074;-80
2022/04/21 08:52:34;;;;;;;;;;;16.90;87.60;;;;;;4932412;28;20153;-81
2022/04/21 08:55:02;;;;;;;6.35;2.10;;;16.90;88.10;;;;;;4962437;28;19930;-80
2022/04/21 08:57:30;;;;;;;5.68;2.30;;;16.80;86.60;;;;;;4964137;28;20513;-81
2022/04/21 08:59:57;;;;;;;5.30;2.22;;;16.70;85.30;;;;;;4943734;28;20066;-81
2022/04/21 09:02:40;;;;;;;5.07;1.95;;;16.60;85.70;;;;;;4969186;28;20544;-84
2022/04/21 09:05:07;;;;;;;7.35;2.35;;;16.60;85.80;;;;;;4967712;28;20075;-79
2022/04/21 09:07:46;;;;;;;7.03;2.13;;;16.70;87.90;;;;;;4947375;28;20588;-80
2022/04/21 09:10:14;;;;;;;7.07;2.03;;;16.80;85.70;;;;;;4947966;28;20137;-78
2022/04/21 09:12:40;;;;;;;5.00;2.10;;;16.60;84.30;;;;;;4964224;28;20515;-77
2022/04/21 09:15:09;;;;;;;5.57;2.10;;;16.60;85.30;;;;;;4948731;28;20050;-81
2022/04/21 09:17:43;;;;;;;5.00;2.17;;;16.70;87.20;;;;;;4949135;28;20046;-82
2022/04/21 09:20:09;;;;;;;6.85;2.28;;;16.90;86.70;;;;;;4946836;28;20051;-81
2022/04/21 09:22:40;;;;;;;9.07;2.70;;;17.00;85.30;;;;;;4980103;28;20050;-80
2022/04/21 09:25:07;;;;;;;5.35;2.28;;;16.90;83.90;;;;;;4978894;28;20054;-80
2022/04/21 09:27:41;;;;;;;8.25;2.78;;;16.70;84.60;;;;;;4946466;28;20047;-79
2022/04/21 09:30:12;;;;;;;6.63;2.50;;;16.70;84.60;;;;;;4945494;28;20077;-80
2022/04/21 09:32:39;;;;;;;7.80;2.83;;;16.70;83.40;;;;;;4961604;28;20474;-81
2022/04/21 09:35:06;;;;;;;6.25;2.65;;;16.80;86.20;;;;;;4947363;28;20551;-82
2022/04/21 09:37:33;;;;;;;6.30;2.53;;;17.00;87.40;;;;;;4948263;28;20137;-80
2022/04/21 09:40:02;;;;;;;8.57;3.13;;;17.20;87.70;;;;;;4961858;28;20058;-81
2022/04/21 09:42:29;;;;;;;6.85;2.47;;;17.30;87.40;;;;;;4947359;28;20046;-81
2022/04/21 09:47:50;;;;;;;6.68;2.35;;;17.80;89.10;;;;;;4947188;28;20053;-81
2022/04/21 09:50:16;;;;;;;8.93;2.90;;;17.80;87.80;;;;;;4947274;28;20102;-81
2022/04/21 09:52:53;;;;;;;7.80;2.80;;;17.90;85.80;;;;;;4963702;28;20503;-79
2022/04/21 09:55:31;;;;;;;5.95;2.90;;;17.90;86.30;;;;;;4947333;28;20130;-80
2022/04/21 09:58:07;;;;;;;7.13;3.00;;;17.90;84.20;;;;;;4947629;28;20042;-79
2022/04/21 10:00:36;;;;;;;7.03;3.00;;;17.90;84.10;;;;;;4948917;28;20407;-82
2022/04/21 10:03:02;;;;;;;10.10;3.55;;;17.80;85.40;;;;;;4963849;28;20039;-80
2022/04/21 10:05:34;;;;;;;7.32;2.60;;;17.90;86.80;;;;;;4932119;28;20396;-79
2022/04/21 10:08:04;;;;;;;7.25;2.40;;;17.90;84.70;;;;;;4966519;28;20575;-80
2022/04/21 10:10:35;;;;;;;5.47;2.55;;;17.80;84.20;;;;;;4953786;28;20038;-80
2022/04/21 10:13:03;;;;;;;8.97;2.77;;;17.80;84.20;;;;;;4953586;28;20066;-79
2022/04/21 10:15:29;;;;;;;8.25;2.35;;;17.70;84.50;;;;;;4949818;28;20408;-81
2022/04/21 10:17:55;;;;;;;7.28;2.90;;;17.60;84.70;;;;;;4949795;28;20058;-84
2022/04/21 10:20:26;;;;;;;8.13;2.50;;;17.50;83.60;;;;;;4950911;29;20097;-85
2022/04/21 10:22:54;;;;;;;6.68;2.78;;;17.50;84.30;;;;;;4953166;28;20122;-84
2022/04/21 10:25:22;;;;;;;6.43;2.38;;;17.40;84.10;;;;;;4954348;28;20082;-85
2022/04/21 10:27:50;;;;;;;5.25;2.42;;;17.30;85.00;;;;;;4967355;28;20035;-83
2022/04/21 10:30:29;;;;;;;9.30;2.80;;;17.40;85.60;;;;;;4960567;28;20114;-83
2022/04/21 10:33:01;;;;;;;4.90;2.17;;;17.50;85.70;;;;;;4946766;29;20420;-79
2022/04/21 10:35:36;;;;;;;4.90;2.30;;;17.40;84.10;;;;;;4941519;28;20523;-81
2022/04/21 10:38:14;;;;;;;6.20;2.35;;;17.30;85.00;;;;;;4938792;28;21173;-80
2022/04/21 10:41:08;;;;;;;5.70;2.28;;;17.10;83.70;;;;;;4943013;28;20046;-81
2022/04/21 10:43:48;;;;;;;6.65;2.78;;;17.10;86.10;;;;;;4943674;28;20070;-79
2022/04/21 10:46:25;;;;;;;5.55;2.42;;;16.90;85.40;;;;;;4943640;28;20103;-80
2022/04/21 10:48:50;;;;;;;6.82;2.95;;;17.00;86.10;;;;;;4946937;28;20180;-81
2022/04/21 10:51:41;;;;;;;5.93;2.65;;;17.10;85.30;;;;;;4947724;28;20105;-80
2022/04/21 11:00:00;;;;;;;4.50;2.05;;;17.30;86.00;;;;;;4945848;29;20070;-83
2022/04/21 11:03:03;;;;;;;5.93;2.40;;;17.30;84.30;;;;;;4947135;28;20148;-81
2022/04/21 11:05:33;;;;;;;5.43;2.60;;;17.40;83.70;;;;;;4956107;28;20295;-81
2022/04/21 11:08:01;;;;;;;5.15;2.15;;;17.40;85.80;;;;;;4953609;28;20047;-83
2022/04/21 11:10:43;;;;;;;4.95;1.98;;;17.50;82.80;;;;;;4949699;28;20050;-84
2022/04/21 11:13:17;;;;;;;10.38;2.58;;;17.50;82.90;;;;;;4943690;28;20047;-82
2022/04/21 11:15:53;;;;;;;5.55;2.20;;;17.50;83.20;;;;;;4912621;29;20047;-82
2022/04/21 11:18:29;;;;;;;8.63;2.30;;;17.50;82.20;;;;;;4944120;28;20047;-84
2022/04/21 11:21:21;;;;;;;6.30;2.80;;;17.50;82.00;;;;;;4926003;29;20048;-83
2022/04/21 11:23:50;;;;;;;5.00;2.40;;;17.60;82.90;;;;;;4926255;29;20047;-84
2022/04/21 11:26:15;;;;;;;5.25;2.30;;;17.50;81.60;;;;;;4959577;28;20048;-84
2022/04/21 11:28:46;;;;;;;6.18;2.13;;;17.30;83.10;;;;;;4923193;29;20052;-84
2022/04/21 11:31:12;;;;;;;6.63;2.40;;;17.40;81.40;;;;;;4926088;29;20121;-84
2022/04/21 11:33:44;;;;;;;5.97;2.20;;;17.10;82.50;;;;;;4927883;29;20150;-82
2022/04/21 11:36:12;;;;;;;7.80;2.20;;;17.10;82.70;;;;;;4956769;28;20099;-83
2022/04/21 11:38:42;;;;;;;6.43;2.55;;;17.10;83.50;;;;;;4926850;29;20075;-84
2022/04/21 11:41:10;;;;;;;5.38;1.90;;;17.30;84.00;;;;;;4957701;28;20092;-82
2022/04/21 11:43:50;;;;;;;6.57;2.90;;;17.30;83.40;;;;;;4909461;29;20177;-82
2022/04/21 11:46:19;;;;;;;6.18;2.03;;;17.20;82.30;;;;;;4922792;29;20556;-84
2022/04/21 11:48:44;;;;;;;6.05;2.20;;;17.20;84.50;;;;;;4924496;29;20047;-83
2022/04/21 11:51:11;;;;;;;65.13;5.57;;;17.20;82.20;;;;;;4956648;28;20054;-82
2022/04/21 11:53:42;;;;;;;5.22;2.08;;;17.40;82.40;;;;;;4922967;29;20119;-84
2022/04/21 11:56:10;;;;;;;4.80;2.47;;;17.50;82.90;;;;;;4937176;28;20055;-84
2022/04/21 11:58:41;;;;;;;6.95;2.50;;;17.60;82.60;;;;;;4925596;29;20526;-82
2022/04/21 12:06:52;;;;;;;5.40;2.35;;;17.40;81.30;;;;;;4923592;29;21261;-79
2022/04/21 12:09:26;;;;;;;6.22;2.60;;;17.40;83.40;;;;;;4920046;29;21645;-78
2022/04/21 12:11:54;;;;;;;6.75;2.75;;;17.50;83.80;;;;;;4937091;28;20051;-78
2022/04/21 12:14:21;;;;;;;4.72;2.42;;;17.60;83.80;;;;;;4942808;28;20455;-79
2022/04/21 12:16:53;;;;;;;7.32;2.85;;;17.80;82.80;;;;;;4945496;28;20031;-77
2022/04/21 12:19:46;;;;;;;6.20;2.78;;;17.60;81.70;;;;;;4930661;28;20720;-78
2022/04/21 12:22:17;;;;;;;9.05;2.80;;;17.60;84.20;;;;;;4946807;28;20054;-78
2022/04/21 12:24:46;;;;;;;5.93;2.83;;;17.50;83.50;;;;;;4944190;28;20073;-80
2022/04/21 12:27:23;;;;;;;7.75;3.10;;;17.50;85.40;;;;;;4977863;28;20474;-79
2022/04/21 12:29:51;;;;;;;5.75;3.45;;;17.70;87.80;;;;;;4936610;28;20106;-77
2022/04/21 12:32:25;;;;;;;7.50;3.13;;;17.80;86.10;;;;;;4967676;28;20103;-83
2022/04/21 12:34:55;;;;;;;6.57;3.17;;;17.40;86.60;;;;;;4973670;28;20055;-83
2022/04/21 12:37:32;;;;;;;6.90;3.05;;;17.20;86.90;;;;;;4934331;28;20050;-83
2022/04/21 12:40:00;;;;;;;8.60;3.67;;;16.90;85.70;;;;;;4963442;28;20046;-84
2022/04/21 12:42:28;;;;;;;6.38;3.40;;;16.80;88.60;;;;;;4950180;28;20039;-83
2022/04/21 12:44:54;;;;;;;9.10;3.13;;;16.70;88.00;;;;;;4948055;28;20039;-78
2022/04/21 12:47:21;;;;;;;10.85;2.67;;;16.50;87.40;;;;;;4947869;28;20058;-81
2022/04/21 12:49:51;;;;;;;8.35;3.20;;;16.40;90.40;;;;;;4947419;28;20034;-80
2022/04/21 12:52:36;;;;;;;7.05;3.55;;;16.50;91.10;;;;;;4963494;28;20047;-83
2022/04/21 12:55:18;;;;;;;7.85;3.67;;;16.70;91.30;;;;;;4963716;28;20864;-85
2022/04/21 12:57:57;;;;;;;10.27;3.28;;;16.70;90.80;;;;;;4944853;28;20466;-86
2022/04/21 13:00:23;;;;;;;7.07;3.67;;;16.70;91.10;;;;;;4957087;28;20043;-85
2022/04/21 13:02:49;;;;;;;8.50;3.58;;;16.80;91.50;;;;;;4942904;28;20047;-85
2022/04/21 13:05:14;;;;;;;5.82;3.40;;;16.80;91.30;;;;;;4961387;28;20047;-86
2022/04/21 13:07:40;;;;;;;7.80;3.83;;;16.70;91.20;;;;;;4929934;28;20058;-87
2022/04/21 13:10:09;;;;;;;8.55;3.80;;;16.90;91.80;;;;;;4941566;28;20105;-86
2022/04/21 13:12:35;;;;;;;9.25;3.78;;;16.80;91.80;;;;;;4964561;28;21563;-84
2022/04/21 13:15:01;;;;;;;10.68;3.80;;;16.80;91.20;;;;;;4948509;28;20046;-84
2022/04/21 13:17:27;;;;;;;6.85;4.10;;;16.80;92.00;;;;;;4948505;28;20100;-87
2022/04/21 13:20:08;;;;;;;8.00;3.78;;;16.70;91.50;;;;;;4944981;28;20086;-86
2022/04/21 13:22:34;;;;;;;6.65;3.70;;;16.60;91.90;;;;;;4943828;28;20067;-87
2022/04/21 13:25:00;;;;;;;6.20;3.65;;;16.40;91.90;;;;;;4932126;28;20407;-85
2022/04/21 13:27:29;;;;;;;6.78;3.55;;;16.60;91.70;;;;;;4976173;28;20034;-86
2022/04/21 13:29:55;;;;;;;6.47;4.05;;;16.30;92.40;;;;;;4944204;28;20463;-83
2022/04/21 13:35:07;;;;;;;8.63;3.38;;;16.40;92.80;;;;;;4947505;28;20954;-84
2022/04/21 13:37:33;;;;;;;7.10;3.35;;;16.40;93.00;;;;;;4962937;28;20050;-83
2022/04/21 13:39:58;;;;;;;10.38;3.97;;;16.40;93.00;;;;;;4942543;28;20467;-85
2022/04/21 13:42:24;;;;;;;6.93;3.85;;;16.40;92.90;;;;;;4947024;28;20154;-84
2022/04/21 13:44:51;;;;;;;7.40;3.72;;;16.20;92.60;;;;;;4945618;28;20407;-84
2022/04/21 13:47:22;;;;;;;5.63;3.20;;;16.30;93.30;;;;;;4965083;28;20043;-83
2022/04/21 13:49:48;;;;;;;10.38;4.13;;;16.10;92.90;;;;;;4963629;28;20047;-82
2022/04/21 13:52:14;;;;;;;6.22;3.67;;;16.10;93.10;;;;;;4929329;28;20054;-85